createdAt,value
2022-10-06T03:53:02.735Z,101523.06
2022-10-06T03:56:08.794Z,101523.72
2022-10-06T03:59:13.295Z,101519.34
2022-10-06T04:02:16.444Z,101525.06
2022-10-06T04:05:19.026Z,101527.31
2022-10-06T04:08:21.130Z,101528.09
2022-10-06T04:11:28.734Z,101534.16
2022-10-06T04:14:30.905Z,101532.88
2022-10-06T04:17:33.509Z,101533.53
2022-10-06T04:20:36.103Z,101530.59
2022-10-06T04:23:38.889Z,101535.81
2022-10-06T04:26:45.372Z,101538.28
2022-10-06T04:29:47.911Z,101545.25
2022-10-06T04:32:49.992Z,101542.91
2022-10-06T04:36:00.889Z,101539.81
2022-10-06T04:39:04.754Z,101547.47
2022-10-06T04:42:07.663Z,101538.06
2022-10-06T04:45:10.437Z,101538.22
2022-10-06T04:48:13.966Z,101537.53
2022-10-06T04:51:17.131Z,101536.94
2022-10-06T04:54:19.856Z,101543.84
2022-10-06T04:57:33.618Z,101535.75
2022-10-06T05:00:36.104Z,101534.16
2022-10-06T05:03:39.296Z,101538.34
2022-10-06T05:06:42.722Z,101537.59
2022-10-06T05:09:45.690Z,101545.69
2022-10-06T05:12:48.027Z,101542.94
2022-10-06T05:15:58.254Z,101547.66
2022-10-06T05:19:02.140Z,101536.97
2022-10-06T05:22:04.743Z,101535.25
2022-10-06T05:25:07.671Z,101538.87
2022-10-06T05:28:09.791Z,101547.06
2022-10-06T05:31:20.084Z,101543.28
2022-10-06T05:34:22.497Z,101548.63
2022-10-06T05:37:26.268Z,101551.38
2022-10-06T05:40:28.425Z,101550.69
2022-10-06T05:43:31.758Z,101552.75
2022-10-06T05:46:34.530Z,101554.78
2022-10-06T05:49:36.962Z,101556.00
2022-10-06T05:52:39.186Z,101553.09
2022-10-06T05:55:41.882Z,101556.84
2022-10-06T05:58:49.314Z,101556.44
2022-10-06T06:01:52.199Z,101557.19
2022-10-06T06:04:55.522Z,101556.66
2022-10-06T06:07:57.693Z,101563.75
2022-10-06T06:11:07.648Z,101567.53
2022-10-06T06:14:12.453Z,101568.34
2022-10-06T06:17:15.226Z,101567.50
2022-10-06T06:20:17.354Z,101568.91
2022-10-06T06:23:19.810Z,101576.31
2022-10-06T06:26:24.973Z,101584.78
2022-10-06T06:29:27.877Z,101590.91
2022-10-06T06:32:31.727Z,101595.25
2022-10-06T06:35:34.842Z,101596.00
2022-10-06T06:38:37.004Z,101603.19
2022-10-06T06:41:41.720Z,101609.34
2022-10-06T06:44:44.497Z,101616.13
2022-10-06T06:47:48.211Z,101611.16
2022-10-06T06:50:58.292Z,101611.28
2022-10-06T06:54:03.104Z,101614.53
2022-10-06T06:57:07.208Z,101613.16
2022-10-06T07:00:10.339Z,101617.97
2022-10-06T07:03:16.739Z,101608.81
2022-10-06T07:06:28.189Z,101618.66
2022-10-06T07:09:31.022Z,101618.03
2022-10-06T07:12:34.039Z,101624.69
2022-10-06T07:15:54.838Z,101619.13
2022-10-06T07:19:16.051Z,101620.50
2022-10-06T07:22:40.760Z,101624.31
2022-10-06T07:25:43.433Z,101616.97
2022-10-06T07:28:46.195Z,101622.69
2022-10-06T07:31:50.028Z,101624.28
2022-10-06T07:34:52.849Z,101641.94
2022-10-06T07:37:55.734Z,101635.38
2022-10-06T07:41:18.395Z,101626.59
2022-10-06T07:44:22.022Z,101623.66
2022-10-06T07:47:24.406Z,101628.25
2022-10-06T07:50:26.979Z,101628.56
2022-10-06T07:53:29.283Z,101630.59
2022-10-06T07:56:31.913Z,101631.09
2022-10-06T07:59:35.096Z,101632.94
2022-10-06T08:02:39.112Z,101633.91
2022-10-06T08:05:41.431Z,101634.88
2022-10-06T08:08:47.091Z,101640.50
2022-10-06T08:11:52.939Z,101646.91
2022-10-06T08:14:55.321Z,101641.00
2022-10-06T08:18:02.182Z,101645.12
2022-10-06T08:21:15.425Z,101643.78
2022-10-06T08:24:17.812Z,101640.28
2022-10-06T08:27:19.864Z,101642.38
2022-10-06T08:30:26.984Z,101639.97
2022-10-06T08:33:29.030Z,101648.94
2022-10-06T08:36:32.741Z,101635.81
2022-10-06T08:39:34.948Z,101638.81
2022-10-06T08:42:42.438Z,101641.75
2022-10-06T08:45:46.759Z,101634.81
2022-10-06T08:48:49.306Z,101632.31
2022-10-06T08:52:03.234Z,101635.16
2022-10-06T08:55:14.520Z,101637.16
2022-10-06T08:58:36.323Z,101632.94
2022-10-06T09:01:45.548Z,101634.66
2022-10-06T09:04:49.597Z,101638.19
2022-10-06T09:08:25.477Z,101635.78
2022-10-06T09:12:03.305Z,101641.25
2022-10-06T09:15:14.774Z,101643.06
2022-10-06T09:18:49.457Z,101638.84
2022-10-06T09:22:05.610Z,101639.94
2022-10-06T09:25:28.449Z,101639.41
2022-10-06T09:28:34.700Z,101636.03
2022-10-06T09:31:40.217Z,101639.59
2022-10-06T09:34:56.331Z,101641.56
2022-10-06T09:38:08.368Z,101637.34
2022-10-06T09:41:13.391Z,101636.66
2022-10-06T09:44:24.922Z,101635.94
2022-10-06T09:47:35.196Z,101636.81
2022-10-06T09:50:37.308Z,101638.50
2022-10-06T09:53:43.827Z,101640.37
2022-10-06T09:56:47.257Z,101640.41
2022-10-06T09:59:49.614Z,101651.06
2022-10-06T10:03:04.253Z,101652.84
2022-10-06T10:06:06.653Z,101649.31
2022-10-06T10:09:23.941Z,101648.44
2022-10-06T10:12:30.807Z,101646.66
2022-10-06T10:15:53.467Z,101643.28
2022-10-06T10:18:55.895Z,101638.22
2022-10-06T10:21:59.837Z,101639.22
2022-10-06T10:25:07.938Z,101636.63
2022-10-06T10:28:28.723Z,101629.63
2022-10-06T10:32:08.308Z,101631.41
2022-10-06T10:35:56.859Z,101634.16
2022-10-06T10:39:01.313Z,101622.78
2022-10-06T10:42:13.828Z,101622.78
2022-10-06T10:45:32.222Z,101619.22
2022-10-06T10:48:42.657Z,101614.78
2022-10-06T10:51:53.453Z,101621.75
2022-10-06T10:55:26.702Z,101624.34
2022-10-06T10:58:34.893Z,101618.12
2022-10-06T11:01:53.490Z,101616.37
2022-10-06T11:05:28.932Z,101618.16
2022-10-06T11:08:56.309Z,101626.97
2022-10-06T11:12:11.733Z,101618.12
2022-10-06T11:15:37.084Z,101619.91
2022-10-06T11:19:14.757Z,101621.69
2022-10-06T11:22:43.911Z,101618.22
2022-10-06T11:26:05.303Z,101615.69
2022-10-06T11:29:27.062Z,101611.28
2022-10-06T11:32:54.515Z,101618.38
2022-10-06T11:35:56.618Z,101611.31
2022-10-06T11:39:11.082Z,101602.53
2022-10-06T11:42:49.023Z,101588.44
2022-10-06T11:46:02.226Z,101596.44
2022-10-06T11:49:28.721Z,101590.25
2022-10-06T11:52:30.926Z,101593.84
2022-10-06T11:55:32.975Z,101590.31
2022-10-06T11:58:56.926Z,101587.66
2022-10-06T12:02:01.313Z,101589.37
2022-10-06T12:05:28.473Z,101586.72
2022-10-06T12:08:39.086Z,101586.72
2022-10-06T12:11:43.002Z,101577.91
2022-10-06T12:16:55.317Z,101580.56
2022-10-06T12:18:37.660Z,101581.41
2022-10-06T12:21:49.041Z,101577.91
2022-10-06T12:25:00.888Z,101574.31
2022-10-06T12:28:12.124Z,101580.53
2022-10-06T12:31:41.348Z,101580.56
2022-10-06T12:34:45.499Z,101577.84
2022-10-06T12:37:54.894Z,101570.75
2022-10-06T12:40:57.618Z,101567.19
2022-10-06T12:44:00.689Z,101567.06
2022-10-06T12:47:11.272Z,101569.75
2022-10-06T12:50:25.887Z,101557.41
2022-10-06T12:53:32.757Z,101556.59
2022-10-06T12:56:40.897Z,101562.81
2022-10-06T12:59:43.052Z,101553.97
2022-10-06T13:02:45.798Z,101556.59
2022-10-06T13:05:51.900Z,101550.44
2022-10-06T13:09:13.824Z,101557.47
2022-10-06T13:12:30.962Z,101553.94
2022-10-06T13:15:35.525Z,101549.53
2022-10-06T13:18:37.590Z,101546.88
2022-10-06T13:21:39.932Z,101553.06
2022-10-06T13:24:42.012Z,101540.66
2022-10-06T13:27:51.861Z,101540.69
2022-10-06T13:34:18.727Z,101533.62
2022-10-06T13:37:20.863Z,101533.59
2022-10-06T13:40:45.654Z,101532.69
2022-10-06T13:43:54.815Z,101530.12
2022-10-06T13:47:29.669Z,101539.84
2022-10-06T13:50:31.916Z,101537.22
2022-10-06T13:53:34.512Z,101530.16
2022-10-06T13:56:40.331Z,101537.25
2022-10-06T13:59:42.688Z,101543.44
2022-10-06T14:02:48.184Z,101539.91
2022-10-06T14:06:03.760Z,101531.06
2022-10-06T14:09:12.090Z,101537.25
2022-10-06T14:12:20.425Z,101538.97
2022-10-06T14:15:28.547Z,101536.34
2022-10-06T14:18:39.894Z,101549.63
2022-10-06T14:21:44.780Z,101545.22
2022-10-06T14:24:53.753Z,101549.63
2022-10-06T14:27:55.921Z,101551.41
2022-10-06T14:30:58.776Z,101551.41
2022-10-06T14:34:02.421Z,101554.09
2022-10-06T14:37:04.693Z,101550.56
2022-10-06T14:40:11.829Z,101548.78
2022-10-06T14:43:14.532Z,101557.62
2022-10-06T14:46:16.760Z,101550.56
2022-10-06T14:49:19.709Z,101559.41
2022-10-06T14:52:22.199Z,101561.19
2022-10-06T14:55:29.692Z,101562.06
2022-10-06T14:58:32.982Z,101563.78
2022-10-06T15:01:37.719Z,101567.34
2022-10-06T15:04:39.752Z,101567.38
2022-10-06T15:08:00.873Z,101579.69
2022-10-06T15:11:02.898Z,101575.28
2022-10-06T15:14:08.453Z,101568.19
2022-10-06T15:17:10.507Z,101571.72
